Terminal Aerodrome Forecast
Issued by NWS Austin/San Antonio, TX

Current Version | Previous Version | Text Only | Print | Product List | Glossary Off
Versions: 1 2 3 4 5 6 7 8 9 10 11 12 13 14 15 16 17 18

000
FTUS44 KEWX 261420 AAB
TAFAUS
TAF AMD
KAUS 261420Z 2614/2718 20011KT P6SM SCT200
     FM261600 26014G25KT P6SM FEW250
     FM261800 31020G30KT P6SM FEW250
     FM270200 35007KT P6SM SCT250=

USA.gov is the U.S. government's official web portal to all federal, state and local government web resources and services.